sensor_id;sensor_type;location;lat;lon;timestamp;temperature;humidity
62363;DHT22;48396;48.426;1.500;2022-08-30T00:01:14;26.10;48.20
62363;DHT22;48396;48.426;1.500;2022-08-30T00:03:45;26.00;48.10
62363;DHT22;48396;48.426;1.500;2022-08-30T00:06:11;26.10;48.20
62363;DHT22;48396;48.426;1.500;2022-08-30T00:08:37;26.00;48.20
62363;DHT22;48396;48.426;1.500;2022-08-30T00:11:06;26.00;48.20
62363;DHT22;48396;48.426;1.500;2022-08-30T00:13:37;25.90;48.20
62363;DHT22;48396;48.426;1.500;2022-08-30T00:16:03;25.90;48.30
62363;DHT22;48396;48.426;1.500;2022-08-30T00:18:31;25.90;48.30
62363;DHT22;48396;48.426;1.500;2022-08-30T00:20:57;25.90;48.30
62363;DHT22;48396;48.426;1.500;2022-08-30T00:23:23;25.90;48.30
62363;DHT22;48396;48.426;1.500;2022-08-30T00:25:49;25.80;48.20
62363;DHT22;48396;48.426;1.500;2022-08-30T00:28:14;25.90;48.40
62363;DHT22;48396;48.426;1.500;2022-08-30T00:30:41;25.90;48.40
62363;DHT22;48396;48.426;1.500;2022-08-30T00:33:07;25.90;48.30
62363;DHT22;48396;48.426;1.500;2022-08-30T00:35:33;25.90;48.30
62363;DHT22;48396;48.426;1.500;2022-08-30T00:37:58;25.80;48.30
62363;DHT22;48396;48.426;1.500;2022-08-30T00:40:24;25.90;48.30
62363;DHT22;48396;48.426;1.500;2022-08-30T00:42:50;25.90;48.40
62363;DHT22;48396;48.426;1.500;2022-08-30T00:45:18;25.90;48.30
62363;DHT22;48396;48.426;1.500;2022-08-30T00:47:44;25.80;48.30
62363;DHT22;48396;48.426;1.500;2022-08-30T00:50:11;25.80;48.30
62363;DHT22;48396;48.426;1.500;2022-08-30T00:52:39;25.80;48.30
62363;DHT22;48396;48.426;1.500;2022-08-30T00:55:06;25.80;48.40
62363;DHT22;48396;48.426;1.500;2022-08-30T00:57:32;25.70;48.30
62363;DHT22;48396;48.426;1.500;2022-08-30T01:00:00;25.80;48.40
62363;DHT22;48396;48.426;1.500;2022-08-30T01:02:26;25.80;48.30
62363;DHT22;48396;48.426;1.500;2022-08-30T01:04:55;25.80;48.30
62363;DHT22;48396;48.426;1.500;2022-08-30T01:07:20;25.80;48.30
62363;DHT22;48396;48.426;1.500;2022-08-30T01:09:46;25.80;48.30
62363;DHT22;48396;48.426;1.500;2022-08-30T01:12:12;25.80;48.40
62363;DHT22;48396;48.426;1.500;2022-08-30T01:14:37;25.70;48.50
62363;DHT22;48396;48.426;1.500;2022-08-30T01:17:03;25.70;49.40
62363;DHT22;48396;48.426;1.500;2022-08-30T01:22:07;25.60;50.20
62363;DHT22;48396;48.426;1.500;2022-08-30T01:24:35;25.60;51.10
62363;DHT22;48396;48.426;1.500;2022-08-30T01:27:01;25.60;51.80
62363;DHT22;48396;48.426;1.500;2022-08-30T01:29:27;25.40;52.10
62363;DHT22;48396;48.426;1.500;2022-08-30T01:31:53;25.50;52.10
62363;DHT22;48396;48.426;1.500;2022-08-30T01:34:19;25.40;52.40
62363;DHT22;48396;48.426;1.500;2022-08-30T01:36:45;25.30;53.30
62363;DHT22;48396;48.426;1.500;2022-08-30T01:39:12;25.20;53.20
62363;DHT22;48396;48.426;1.500;2022-08-30T01:41:38;25.20;53.60
62363;DHT22;48396;48.426;1.500;2022-08-30T01:44:05;25.20;53.40
62363;DHT22;48396;48.426;1.500;2022-08-30T01:46:33;25.20;53.30
62363;DHT22;48396;48.426;1.500;2022-08-30T01:49:03;25.20;53.50
62363;DHT22;48396;48.426;1.500;2022-08-30T01:51:29;25.20;53.70
62363;DHT22;48396;48.426;1.500;2022-08-30T01:53:55;25.20;53.60
62363;DHT22;48396;48.426;1.500;2022-08-30T01:56:22;25.20;53.90
62363;DHT22;48396;48.426;1.500;2022-08-30T01:58:48;25.20;54.00
62363;DHT22;48396;48.426;1.500;2022-08-30T02:01:14;25.20;53.90
62363;DHT22;48396;48.426;1.500;2022-08-30T02:03:41;25.10;54.10
62363;DHT22;48396;48.426;1.500;2022-08-30T02:06:08;25.00;54.00
62363;DHT22;48396;48.426;1.500;2022-08-30T02:08:35;25.10;53.80
62363;DHT22;48396;48.426;1.500;2022-08-30T02:11:01;25.10;53.70
62363;DHT22;48396;48.426;1.500;2022-08-30T02:13:27;25.00;53.80
62363;DHT22;48396;48.426;1.500;2022-08-30T02:15:53;25.00;53.90
62363;DHT22;48396;48.426;1.500;2022-08-30T02:18:19;24.90;53.60
62363;DHT22;48396;48.426;1.500;2022-08-30T02:20:44;24.90;53.70
62363;DHT22;48396;48.426;1.500;2022-08-30T02:23:10;24.90;53.60
62363;DHT22;48396;48.426;1.500;2022-08-30T02:25:36;24.80;53.60
62363;DHT22;48396;48.426;1.500;2022-08-30T02:28:02;24.70;53.50
62363;DHT22;48396;48.426;1.500;2022-08-30T02:30:28;24.70;53.30
62363;DHT22;48396;48.426;1.500;2022-08-30T02:32:54;24.80;53.20
62363;DHT22;48396;48.426;1.500;2022-08-30T02:35:19;24.80;53.00
62363;DHT22;48396;48.426;1.500;2022-08-30T02:37:45;24.70;52.80
62363;DHT22;48396;48.426;1.500;2022-08-30T02:40:10;24.80;53.40
62363;DHT22;48396;48.426;1.500;2022-08-30T02:42:36;24.80;52.70
62363;DHT22;48396;48.426;1.500;2022-08-30T02:45:02;24.60;52.60
62363;DHT22;48396;48.426;1.500;2022-08-30T02:47:28;24.60;52.50
62363;DHT22;48396;48.426;1.500;2022-08-30T02:49:53;24.60;52.40
62363;DHT22;48396;48.426;1.500;2022-08-30T02:52:19;24.60;52.20
62363;DHT22;48396;48.426;1.500;2022-08-30T02:54:45;24.60;52.30
62363;DHT22;48396;48.426;1.500;2022-08-30T02:57:10;24.60;52.20
62363;DHT22;48396;48.426;1.500;2022-08-30T02:59:38;24.60;52.00
62363;DHT22;48396;48.426;1.500;2022-08-30T03:02:09;24.60;52.00
62363;DHT22;48396;48.426;1.500;2022-08-30T03:04:34;24.60;51.90
62363;DHT22;48396;48.426;1.500;2022-08-30T03:07:00;24.50;51.90
62363;DHT22;48396;48.426;1.500;2022-08-30T03:09:26;24.50;51.80
62363;DHT22;48396;48.426;1.500;2022-08-30T03:11:51;24.50;51.80
62363;DHT22;48396;48.426;1.500;2022-08-30T03:14:17;24.50;51.70
62363;DHT22;48396;48.426;1.500;2022-08-30T03:16:43;24.50;51.60
62363;DHT22;48396;48.426;1.500;2022-08-30T03:19:08;24.50;51.60
62363;DHT22;48396;48.426;1.500;2022-08-30T03:21:35;24.50;51.50
62363;DHT22;48396;48.426;1.500;2022-08-30T03:24:01;24.40;51.50
62363;DHT22;48396;48.426;1.500;2022-08-30T03:26:27;24.40;51.60
62363;DHT22;48396;48.426;1.500;2022-08-30T03:28:52;24.40;51.60
62363;DHT22;48396;48.426;1.500;2022-08-30T03:31:18;24.50;51.50
62363;DHT22;48396;48.426;1.500;2022-08-30T03:33:44;24.50;51.40
62363;DHT22;48396;48.426;1.500;2022-08-30T03:36:09;24.40;51.40
62363;DHT22;48396;48.426;1.500;2022-08-30T03:38:35;24.40;51.50
62363;DHT22;48396;48.426;1.500;2022-08-30T03:41:01;24.40;51.50
62363;DHT22;48396;48.426;1.500;2022-08-30T03:43:26;24.40;51.50
62363;DHT22;48396;48.426;1.500;2022-08-30T03:45:52;24.40;51.40
62363;DHT22;48396;48.426;1.500;2022-08-30T03:48:18;24.40;51.40
62363;DHT22;48396;48.426;1.500;2022-08-30T03:50:43;24.40;51.30
62363;DHT22;48396;48.426;1.500;2022-08-30T03:53:09;24.40;51.40
62363;DHT22;48396;48.426;1.500;2022-08-30T03:55:35;24.50;51.40
62363;DHT22;48396;48.426;1.500;2022-08-30T03:58:00;24.40;51.40
62363;DHT22;48396;48.426;1.500;2022-08-30T04:00:26;24.30;51.40
62363;DHT22;48396;48.426;1.500;2022-08-30T04:02:52;24.30;51.40
62363;DHT22;48396;48.426;1.500;2022-08-30T04:05:17;24.30;51.60
62363;DHT22;48396;48.426;1.500;2022-08-30T04:07:43;24.30;51.60
62363;DHT22;48396;48.426;1.500;2022-08-30T04:10:09;24.20;51.60
62363;DHT22;48396;48.426;1.500;2022-08-30T04:12:35;24.30;51.60
62363;DHT22;48396;48.426;1.500;2022-08-30T04:15:01;24.20;51.60
62363;DHT22;48396;48.426;1.500;2022-08-30T04:17:27;24.30;51.60
62363;DHT22;48396;48.426;1.500;2022-08-30T04:19:53;24.30;51.40
62363;DHT22;48396;48.426;1.500;2022-08-30T04:22:18;24.30;51.40
62363;DHT22;48396;48.426;1.500;2022-08-30T04:24:44;24.30;51.60
62363;DHT22;48396;48.426;1.500;2022-08-30T04:27:10;24.30;51.50
62363;DHT22;48396;48.426;1.500;2022-08-30T04:29:36;24.30;51.60
62363;DHT22;48396;48.426;1.500;2022-08-30T04:32:01;24.20;51.60
62363;DHT22;48396;48.426;1.500;2022-08-30T04:34:27;24.30;51.70
62363;DHT22;48396;48.426;1.500;2022-08-30T04:36:53;24.20;51.80
62363;DHT22;48396;48.426;1.500;2022-08-30T04:39:19;24.20;51.90
62363;DHT22;48396;48.426;1.500;2022-08-30T04:41:44;24.20;52.00
62363;DHT22;48396;48.426;1.500;2022-08-30T04:44:10;24.20;52.10
62363;DHT22;48396;48.426;1.500;2022-08-30T04:46:36;24.10;52.40
62363;DHT22;48396;48.426;1.500;2022-08-30T04:49:05;24.10;52.40
62363;DHT22;48396;48.426;1.500;2022-08-30T04:51:31;24.10;52.50
62363;DHT22;48396;48.426;1.500;2022-08-30T04:53:56;24.10;52.50
62363;DHT22;48396;48.426;1.500;2022-08-30T04:56:22;24.10;52.90
62363;DHT22;48396;48.426;1.500;2022-08-30T04:58:49;24.00;52.90
62363;DHT22;48396;48.426;1.500;2022-08-30T05:01:17;24.00;52.90
62363;DHT22;48396;48.426;1.500;2022-08-30T05:03:43;24.00;53.10
62363;DHT22;48396;48.426;1.500;2022-08-30T05:06:12;24.00;53.10
62363;DHT22;48396;48.426;1.500;2022-08-30T05:08:38;24.00;53.40
62363;DHT22;48396;48.426;1.500;2022-08-30T05:11:04;24.00;53.30
62363;DHT22;48396;48.426;1.500;2022-08-30T05:13:30;24.00;53.80
62363;DHT22;48396;48.426;1.500;2022-08-30T05:15:56;23.90;53.90
62363;DHT22;48396;48.426;1.500;2022-08-30T05:18:21;23.90;53.80
62363;DHT22;48396;48.426;1.500;2022-08-30T05:20:47;23.90;54.30
62363;DHT22;48396;48.426;1.500;2022-08-30T05:23:13;23.80;54.30
62363;DHT22;48396;48.426;1.500;2022-08-30T05:25:39;23.80;54.40
62363;DHT22;48396;48.426;1.500;2022-08-30T05:28:05;23.70;54.80
62363;DHT22;48396;48.426;1.500;2022-08-30T05:30:32;23.70;55.00
62363;DHT22;48396;48.426;1.500;2022-08-30T05:32:58;23.70;55.10
62363;DHT22;48396;48.426;1.500;2022-08-30T05:35:23;23.70;55.20
62363;DHT22;48396;48.426;1.500;2022-08-30T05:37:49;23.70;55.40
62363;DHT22;48396;48.426;1.500;2022-08-30T05:40:15;23.70;55.60
62363;DHT22;48396;48.426;1.500;2022-08-30T05:42:42;23.60;55.70
62363;DHT22;48396;48.426;1.500;2022-08-30T05:45:08;23.70;55.80
62363;DHT22;48396;48.426;1.500;2022-08-30T05:47:34;23.60;55.80
62363;DHT22;48396;48.426;1.500;2022-08-30T05:50:00;23.60;56.10
62363;DHT22;48396;48.426;1.500;2022-08-30T05:52:25;23.60;56.00
62363;DHT22;48396;48.426;1.500;2022-08-30T05:54:52;23.50;56.70
62363;DHT22;48396;48.426;1.500;2022-08-30T05:57:18;23.50;56.50
62363;DHT22;48396;48.426;1.500;2022-08-30T05:59:44;23.50;56.60
62363;DHT22;48396;48.426;1.500;2022-08-30T06:02:10;23.50;56.40
62363;DHT22;48396;48.426;1.500;2022-08-30T06:04:36;23.60;56.20
62363;DHT22;48396;48.426;1.500;2022-08-30T06:07:02;23.60;56.20
62363;DHT22;48396;48.426;1.500;2022-08-30T06:09:28;23.60;56.10
62363;DHT22;48396;48.426;1.500;2022-08-30T06:11:54;23.60;56.10
62363;DHT22;48396;48.426;1.500;2022-08-30T06:14:19;23.70;56.00
62363;DHT22;48396;48.426;1.500;2022-08-30T06:16:45;23.60;56.10
62363;DHT22;48396;48.426;1.500;2022-08-30T06:19:11;23.60;56.00
62363;DHT22;48396;48.426;1.500;2022-08-30T06:21:39;23.60;55.90
62363;DHT22;48396;48.426;1.500;2022-08-30T06:24:05;23.60;56.00
62363;DHT22;48396;48.426;1.500;2022-08-30T06:26:34;23.60;55.80
62363;DHT22;48396;48.426;1.500;2022-08-30T06:29:01;23.60;55.80
62363;DHT22;48396;48.426;1.500;2022-08-30T06:31:27;23.60;55.70
62363;DHT22;48396;48.426;1.500;2022-08-30T06:33:53;23.60;55.70
62363;DHT22;48396;48.426;1.500;2022-08-30T06:36:20;23.60;55.70
62363;DHT22;48396;48.426;1.500;2022-08-30T06:38:48;23.50;55.70
62363;DHT22;48396;48.426;1.500;2022-08-30T06:41:15;23.60;55.70
62363;DHT22;48396;48.426;1.500;2022-08-30T06:43:43;23.60;55.70
62363;DHT22;48396;48.426;1.500;2022-08-30T06:46:10;23.60;55.60
62363;DHT22;48396;48.426;1.500;2022-08-30T06:48:36;23.60;55.70
62363;DHT22;48396;48.426;1.500;2022-08-30T06:51:02;23.60;55.60
62363;DHT22;48396;48.426;1.500;2022-08-30T06:53:28;23.50;55.70
62363;DHT22;48396;48.426;1.500;2022-08-30T06:55:55;23.50;55.80
62363;DHT22;48396;48.426;1.500;2022-08-30T06:58:20;23.50;55.80
62363;DHT22;48396;48.426;1.500;2022-08-30T07:00:46;23.50;55.70
62363;DHT22;48396;48.426;1.500;2022-08-30T07:03:12;23.50;55.70
62363;DHT22;48396;48.426;1.500;2022-08-30T07:05:37;23.50;55.70
62363;DHT22;48396;48.426;1.500;2022-08-30T07:08:03;23.50;55.80
62363;DHT22;48396;48.426;1.500;2022-08-30T07:10:29;23.50;55.90
62363;DHT22;48396;48.426;1.500;2022-08-30T07:12:54;23.50;55.80
62363;DHT22;48396;48.426;1.500;2022-08-30T07:15:20;23.50;55.80
62363;DHT22;48396;48.426;1.500;2022-08-30T07:17:47;23.50;55.90
62363;DHT22;48396;48.426;1.500;2022-08-30T07:20:31;23.50;56.10
62363;DHT22;48396;48.426;1.500;2022-08-30T07:22:57;23.40;56.00
62363;DHT22;48396;48.426;1.500;2022-08-30T07:25:22;23.50;56.10
62363;DHT22;48396;48.426;1.500;2022-08-30T07:27:48;23.50;56.10
62363;DHT22;48396;48.426;1.500;2022-08-30T07:30:16;23.60;56.10
62363;DHT22;48396;48.426;1.500;2022-08-30T07:32:42;23.60;55.90
62363;DHT22;48396;48.426;1.500;2022-08-30T07:35:08;23.60;55.80
62363;DHT22;48396;48.426;1.500;2022-08-30T07:37:34;23.60;55.70
62363;DHT22;48396;48.426;1.500;2022-08-30T07:39:59;23.70;55.80
62363;DHT22;48396;48.426;1.500;2022-08-30T07:42:25;23.70;55.70
62363;DHT22;48396;48.426;1.500;2022-08-30T07:44:51;23.60;55.70
62363;DHT22;48396;48.426;1.500;2022-08-30T07:47:16;23.60;55.80
62363;DHT22;48396;48.426;1.500;2022-08-30T07:49:42;23.70;55.90
62363;DHT22;48396;48.426;1.500;2022-08-30T07:52:07;23.70;55.70
62363;DHT22;48396;48.426;1.500;2022-08-30T07:54:33;23.70;55.70
62363;DHT22;48396;48.426;1.500;2022-08-30T07:56:59;23.70;55.80
62363;DHT22;48396;48.426;1.500;2022-08-30T07:59:24;23.70;55.70
62363;DHT22;48396;48.426;1.500;2022-08-30T08:01:50;23.70;55.70
62363;DHT22;48396;48.426;1.500;2022-08-30T08:04:15;23.70;55.80
62363;DHT22;48396;48.426;1.500;2022-08-30T08:06:41;23.70;55.80
62363;DHT22;48396;48.426;1.500;2022-08-30T08:09:07;23.70;55.70
62363;DHT22;48396;48.426;1.500;2022-08-30T08:11:33;23.70;55.70
62363;DHT22;48396;48.426;1.500;2022-08-30T08:13:59;23.70;55.70
62363;DHT22;48396;48.426;1.500;2022-08-30T08:16:25;23.70;55.70
62363;DHT22;48396;48.426;1.500;2022-08-30T08:18:52;23.70;55.70
62363;DHT22;48396;48.426;1.500;2022-08-30T08:21:18;23.70;55.70
62363;DHT22;48396;48.426;1.500;2022-08-30T08:23:43;23.70;55.80
62363;DHT22;48396;48.426;1.500;2022-08-30T08:26:09;23.70;55.70
62363;DHT22;48396;48.426;1.500;2022-08-30T08:28:35;23.70;55.70
62363;DHT22;48396;48.426;1.500;2022-08-30T08:31:00;23.70;55.60
62363;DHT22;48396;48.426;1.500;2022-08-30T08:33:26;23.80;55.60
62363;DHT22;48396;48.426;1.500;2022-08-30T08:35:52;23.80;55.60
62363;DHT22;48396;48.426;1.500;2022-08-30T08:38:17;23.80;55.50
62363;DHT22;48396;48.426;1.500;2022-08-30T08:43:18;23.90;55.50
62363;DHT22;48396;48.426;1.500;2022-08-30T08:45:48;24.00;55.50
62363;DHT22;48396;48.426;1.500;2022-08-30T08:50:57;24.10;55.20
62363;DHT22;48396;48.426;1.500;2022-08-30T08:53:43;24.10;55.10
62363;DHT22;48396;48.426;1.500;2022-08-30T08:56:12;24.10;55.10
62363;DHT22;48396;48.426;1.500;2022-08-30T08:58:49;24.10;55.10
62363;DHT22;48396;48.426;1.500;2022-08-30T09:01:16;24.20;55.10
62363;DHT22;48396;48.426;1.500;2022-08-30T09:03:42;24.20;55.00
62363;DHT22;48396;48.426;1.500;2022-08-30T09:06:19;24.20;55.00
62363;DHT22;48396;48.426;1.500;2022-08-30T09:08:46;24.20;55.00
62363;DHT22;48396;48.426;1.500;2022-08-30T09:11:14;24.20;54.80
62363;DHT22;48396;48.426;1.500;2022-08-30T09:13:43;24.20;55.00
62363;DHT22;48396;48.426;1.500;2022-08-30T09:16:09;24.20;54.90
62363;DHT22;48396;48.426;1.500;2022-08-30T09:18:54;24.20;55.00
62363;DHT22;48396;48.426;1.500;2022-08-30T09:21:21;24.20;55.00
62363;DHT22;48396;48.426;1.500;2022-08-30T09:23:49;24.30;55.00
62363;DHT22;48396;48.426;1.500;2022-08-30T09:26:15;24.30;55.00
62363;DHT22;48396;48.426;1.500;2022-08-30T09:28:51;24.30;55.00
62363;DHT22;48396;48.426;1.500;2022-08-30T09:31:22;24.40;55.00
62363;DHT22;48396;48.426;1.500;2022-08-30T09:36:27;24.60;54.70
62363;DHT22;48396;48.426;1.500;2022-08-30T09:39:00;24.60;54.70
62363;DHT22;48396;48.426;1.500;2022-08-30T09:44:03;24.60;54.90
62363;DHT22;48396;48.426;1.500;2022-08-30T09:46:29;24.60;54.90
62363;DHT22;48396;48.426;1.500;2022-08-30T09:48:54;24.60;54.80
62363;DHT22;48396;48.426;1.500;2022-08-30T09:51:32;24.70;54.80
62363;DHT22;48396;48.426;1.500;2022-08-30T09:56:33;24.80;54.70
62363;DHT22;48396;48.426;1.500;2022-08-30T10:01:45;24.80;54.60
62363;DHT22;48396;48.426;1.500;2022-08-30T10:07:31;24.80;54.50
62363;DHT22;48396;48.426;1.500;2022-08-30T10:10:00;24.80;54.50
62363;DHT22;48396;48.426;1.500;2022-08-30T10:15:01;24.90;54.40
62363;DHT22;48396;48.426;1.500;2022-08-30T10:25:06;24.90;54.50
62363;DHT22;48396;48.426;1.500;2022-08-30T10:27:36;25.00;54.50
62363;DHT22;48396;48.426;1.500;2022-08-30T10:30:07;25.10;54.40
62363;DHT22;48396;48.426;1.500;2022-08-30T10:35:05;25.10;54.40
62363;DHT22;48396;48.426;1.500;2022-08-30T10:37:33;25.20;54.40
62363;DHT22;48396;48.426;1.500;2022-08-30T10:40:02;25.20;54.30
62363;DHT22;48396;48.426;1.500;2022-08-30T10:42:49;25.30;54.90
62363;DHT22;48396;48.426;1.500;2022-08-30T10:45:16;25.30;54.10
62363;DHT22;48396;48.426;1.500;2022-08-30T10:47:43;25.30;54.10
62363;DHT22;48396;48.426;1.500;2022-08-30T10:50:24;25.30;54.10
62363;DHT22;48396;48.426;1.500;2022-08-30T10:53:12;25.40;54.10
62363;DHT22;48396;48.426;1.500;2022-08-30T10:55:47;25.40;54.10
62363;DHT22;48396;48.426;1.500;2022-08-30T10:58:14;25.40;54.00
62363;DHT22;48396;48.426;1.500;2022-08-30T11:03:21;25.50;54.10
62363;DHT22;48396;48.426;1.500;2022-08-30T11:11:33;25.70;53.80
62363;DHT22;48396;48.426;1.500;2022-08-30T11:14:02;25.70;53.80
62363;DHT22;48396;48.426;1.500;2022-08-30T11:16:33;25.80;53.80
62363;DHT22;48396;48.426;1.500;2022-08-30T11:18:59;25.80;53.50
62363;DHT22;48396;48.426;1.500;2022-08-30T11:21:35;25.80;53.40
62363;DHT22;48396;48.426;1.500;2022-08-30T11:24:08;25.90;53.40
62363;DHT22;48396;48.426;1.500;2022-08-30T11:29:26;25.90;53.40
62363;DHT22;48396;48.426;1.500;2022-08-30T11:31:52;25.90;53.00
62363;DHT22;48396;48.426;1.500;2022-08-30T11:37:02;26.00;53.20
62363;DHT22;48396;48.426;1.500;2022-08-30T11:42:23;26.00;53.20
62363;DHT22;48396;48.426;1.500;2022-08-30T11:44:49;26.10;53.30
62363;DHT22;48396;48.426;1.500;2022-08-30T11:50:11;26.20;53.20
62363;DHT22;48396;48.426;1.500;2022-08-30T12:03:38;26.40;53.00
62363;DHT22;48396;48.426;1.500;2022-08-30T12:06:04;26.40;53.00
62363;DHT22;48396;48.426;1.500;2022-08-30T12:11:04;26.60;52.80
62363;DHT22;48396;48.426;1.500;2022-08-30T12:19:10;26.60;52.50
62363;DHT22;48396;48.426;1.500;2022-08-30T12:28:51;26.90;52.20
62363;DHT22;48396;48.426;1.500;2022-08-30T12:31:19;26.90;52.20
62363;DHT22;48396;48.426;1.500;2022-08-30T12:33:46;27.00;52.20
62363;DHT22;48396;48.426;1.500;2022-08-30T12:36:29;27.00;51.40
62363;DHT22;48396;48.426;1.500;2022-08-30T12:39:05;27.10;51.70
62363;DHT22;48396;48.426;1.500;2022-08-30T12:41:31;27.20;51.90
62363;DHT22;48396;48.426;1.500;2022-08-30T12:43:56;27.30;51.80
62363;DHT22;48396;48.426;1.500;2022-08-30T12:46:23;27.40;51.50
62363;DHT22;48396;48.426;1.500;2022-08-30T12:48:49;27.40;51.60
62363;DHT22;48396;48.426;1.500;2022-08-30T12:54:15;27.60;51.30
62363;DHT22;48396;48.426;1.500;2022-08-30T13:04:42;27.80;50.30
62363;DHT22;48396;48.426;1.500;2022-08-30T13:07:08;27.80;50.40
62363;DHT22;48396;48.426;1.500;2022-08-30T13:09:34;27.90;50.40
62363;DHT22;48396;48.426;1.500;2022-08-30T13:12:00;28.00;50.20
62363;DHT22;48396;48.426;1.500;2022-08-30T13:14:32;28.10;49.80
62363;DHT22;48396;48.426;1.500;2022-08-30T13:19:42;28.30;49.30
62363;DHT22;48396;48.426;1.500;2022-08-30T13:22:25;28.30;49.30
62363;DHT22;48396;48.426;1.500;2022-08-30T13:24:51;28.40;48.90
62363;DHT22;48396;48.426;1.500;2022-08-30T13:27:17;28.40;48.80
62363;DHT22;48396;48.426;1.500;2022-08-30T13:29:43;28.50;48.70
62363;DHT22;48396;48.426;1.500;2022-08-30T13:32:08;28.60;49.30
62363;DHT22;48396;48.426;1.500;2022-08-30T13:34:34;28.70;49.20
62363;DHT22;48396;48.426;1.500;2022-08-30T13:37:00;28.70;48.90
62363;DHT22;48396;48.426;1.500;2022-08-30T13:39:26;28.70;48.40
62363;DHT22;48396;48.426;1.500;2022-08-30T13:41:52;28.80;48.70
62363;DHT22;48396;48.426;1.500;2022-08-30T13:44:18;28.90;48.90
62363;DHT22;48396;48.426;1.500;2022-08-30T13:46:45;28.90;48.10
62363;DHT22;48396;48.426;1.500;2022-08-30T13:49:17;29.00;48.00
62363;DHT22;48396;48.426;1.500;2022-08-30T13:51:43;29.00;47.70
62363;DHT22;48396;48.426;1.500;2022-08-30T13:54:08;29.10;47.70
62363;DHT22;48396;48.426;1.500;2022-08-30T13:56:34;29.30;48.10
62363;DHT22;48396;48.426;1.500;2022-08-30T13:59:00;29.40;48.20
62363;DHT22;48396;48.426;1.500;2022-08-30T14:01:26;29.40;47.60
62363;DHT22;48396;48.426;1.500;2022-08-30T14:03:52;29.40;47.40
62363;DHT22;48396;48.426;1.500;2022-08-30T14:06:18;29.50;47.60
62363;DHT22;48396;48.426;1.500;2022-08-30T14:08:44;29.50;47.40
62363;DHT22;48396;48.426;1.500;2022-08-30T14:11:10;29.60;47.50
62363;DHT22;48396;48.426;1.500;2022-08-30T14:13:36;29.70;47.60
62363;DHT22;48396;48.426;1.500;2022-08-30T14:16:03;29.70;47.10
62363;DHT22;48396;48.426;1.500;2022-08-30T14:18:29;29.70;47.30
62363;DHT22;48396;48.426;1.500;2022-08-30T14:20:55;29.70;47.40
62363;DHT22;48396;48.426;1.500;2022-08-30T14:23:21;29.80;47.60
62363;DHT22;48396;48.426;1.500;2022-08-30T14:25:47;29.90;47.50
62363;DHT22;48396;48.426;1.500;2022-08-30T14:28:12;30.00;47.50
62363;DHT22;48396;48.426;1.500;2022-08-30T14:30:38;30.10;47.50
62363;DHT22;48396;48.426;1.500;2022-08-30T14:33:05;30.10;47.20
62363;DHT22;48396;48.426;1.500;2022-08-30T14:35:31;30.10;47.00
62363;DHT22;48396;48.426;1.500;2022-08-30T14:37:56;30.20;46.70
62363;DHT22;48396;48.426;1.500;2022-08-30T14:40:22;30.20;47.00
62363;DHT22;48396;48.426;1.500;2022-08-30T14:42:48;30.20;47.80
62363;DHT22;48396;48.426;1.500;2022-08-30T14:45:14;30.20;47.00
62363;DHT22;48396;48.426;1.500;2022-08-30T14:47:39;30.30;46.80
62363;DHT22;48396;48.426;1.500;2022-08-30T14:50:05;30.20;47.20
62363;DHT22;48396;48.426;1.500;2022-08-30T14:52:31;30.30;47.30
62363;DHT22;48396;48.426;1.500;2022-08-30T14:54:58;30.20;47.00
62363;DHT22;48396;48.426;1.500;2022-08-30T14:57:24;30.20;47.10
62363;DHT22;48396;48.426;1.500;2022-08-30T14:59:49;30.20;47.00
62363;DHT22;48396;48.426;1.500;2022-08-30T15:02:15;30.20;47.10
62363;DHT22;48396;48.426;1.500;2022-08-30T15:04:41;30.20;46.80
62363;DHT22;48396;48.426;1.500;2022-08-30T15:07:06;30.30;46.90
62363;DHT22;48396;48.426;1.500;2022-08-30T15:09:32;30.30;47.10
62363;DHT22;48396;48.426;1.500;2022-08-30T15:11:59;30.40;47.00
62363;DHT22;48396;48.426;1.500;2022-08-30T15:14:27;30.50;46.40
62363;DHT22;48396;48.426;1.500;2022-08-30T15:16:53;30.60;47.00
62363;DHT22;48396;48.426;1.500;2022-08-30T15:19:19;30.60;46.40
62363;DHT22;48396;48.426;1.500;2022-08-30T15:21:47;30.60;46.40
62363;DHT22;48396;48.426;1.500;2022-08-30T15:24:14;30.70;46.80
62363;DHT22;48396;48.426;1.500;2022-08-30T15:26:40;30.70;46.70
62363;DHT22;48396;48.426;1.500;2022-08-30T15:29:13;30.70;46.60
62363;DHT22;48396;48.426;1.500;2022-08-30T15:31:39;30.70;46.60
62363;DHT22;48396;48.426;1.500;2022-08-30T15:34:05;30.60;46.10
62363;DHT22;48396;48.426;1.500;2022-08-30T15:36:31;30.70;46.40
62363;DHT22;48396;48.426;1.500;2022-08-30T15:38:57;30.70;46.50
62363;DHT22;48396;48.426;1.500;2022-08-30T15:41:24;30.80;46.30
62363;DHT22;48396;48.426;1.500;2022-08-30T15:43:50;30.80;46.00
62363;DHT22;48396;48.426;1.500;2022-08-30T15:46:24;30.80;46.10
62363;DHT22;48396;48.426;1.500;2022-08-30T15:48:53;30.90;46.00
62363;DHT22;48396;48.426;1.500;2022-08-30T15:51:22;31.00;46.30
62363;DHT22;48396;48.426;1.500;2022-08-30T15:53:48;31.00;45.50
62363;DHT22;48396;48.426;1.500;2022-08-30T15:56:14;31.10;45.60
62363;DHT22;48396;48.426;1.500;2022-08-30T15:58:40;31.20;46.00
62363;DHT22;48396;48.426;1.500;2022-08-30T16:01:06;31.30;45.30
62363;DHT22;48396;48.426;1.500;2022-08-30T16:03:32;31.30;45.30
62363;DHT22;48396;48.426;1.500;2022-08-30T16:05:58;31.30;45.20
62363;DHT22;48396;48.426;1.500;2022-08-30T16:08:24;31.30;44.80
62363;DHT22;48396;48.426;1.500;2022-08-30T16:10:49;31.40;45.20
62363;DHT22;48396;48.426;1.500;2022-08-30T16:13:15;31.40;44.90
62363;DHT22;48396;48.426;1.500;2022-08-30T16:15:41;31.40;44.80
62363;DHT22;48396;48.426;1.500;2022-08-30T16:18:09;31.50;44.70
62363;DHT22;48396;48.426;1.500;2022-08-30T16:20:35;31.50;44.40
62363;DHT22;48396;48.426;1.500;2022-08-30T16:23:01;31.70;45.00
62363;DHT22;48396;48.426;1.500;2022-08-30T16:25:26;31.70;44.90
62363;DHT22;48396;48.426;1.500;2022-08-30T16:27:52;31.80;44.70
62363;DHT22;48396;48.426;1.500;2022-08-30T16:30:18;31.80;44.60
62363;DHT22;48396;48.426;1.500;2022-08-30T16:32:44;31.90;45.40
62363;DHT22;48396;48.426;1.500;2022-08-30T16:35:10;32.00;44.80
62363;DHT22;48396;48.426;1.500;2022-08-30T16:37:36;32.00;44.60
62363;DHT22;48396;48.426;1.500;2022-08-30T16:40:02;32.10;44.60
62363;DHT22;48396;48.426;1.500;2022-08-30T16:42:27;32.10;44.30
62363;DHT22;48396;48.426;1.500;2022-08-30T16:44:53;32.10;44.30
62363;DHT22;48396;48.426;1.500;2022-08-30T16:47:18;32.10;43.90
62363;DHT22;48396;48.426;1.500;2022-08-30T16:49:44;32.10;43.80
62363;DHT22;48396;48.426;1.500;2022-08-30T16:52:10;32.10;43.60
62363;DHT22;48396;48.426;1.500;2022-08-30T16:54:35;32.20;44.00
62363;DHT22;48396;48.426;1.500;2022-08-30T16:57:01;32.30;44.00
62363;DHT22;48396;48.426;1.500;2022-08-30T16:59:27;32.30;43.40
62363;DHT22;48396;48.426;1.500;2022-08-30T17:01:52;32.40;43.80